Lockbourne, Ohio
Current Conditions -  °F | °C
As of 11:15 PM on Monday 22 Dec 2014 (Local Time) from KLCK Reporting Station
Light Rain Light Rain  
Wind Chill: 41°   Ceiling: 9000
Heat Index: 46°   Visibility: 10mi
Dew Point: 38°   Wind: 9mph
Humidity: 74%   Direction: 120°ESE
Pressure: 29.79"   Gusts: NA
Location:  39.81°N, 82.97°W
Report Text: KLCK 230415Z AUTO 12008KT 10SM -RA SCT080 OVC090 08/04 A2979 RMK AO2 T00780035
Loading
Personal Weather Stations






























Interactive Weather Map New forecast layout! Learn more

10-Day Weather Forecast

Advertisements
Track Severe Weather on mobile